sensor_id;sensor_type;location;lat;lon;timestamp;temperature;humidity
65470;DHT22;52067;50.710;14.492;2023-03-14T00:01:20;8.98;90.34
65470;DHT22;52067;50.710;14.492;2023-03-14T00:03:47;9.04;90.23
65470;DHT22;52067;50.710;14.492;2023-03-14T00:06:13;9.04;90.18
65470;DHT22;52067;50.710;14.492;2023-03-14T00:08:40;9.07;90.10
65470;DHT22;52067;50.710;14.492;2023-03-14T00:11:11;8.98;89.93
65470;DHT22;52067;50.710;14.492;2023-03-14T00:13:37;9.19;89.76
65470;DHT22;52067;50.710;14.492;2023-03-14T00:16:05;9.21;89.60
65470;DHT22;52067;50.710;14.492;2023-03-14T00:18:32;8.92;89.73
65470;DHT22;52067;50.710;14.492;2023-03-14T00:21:01;9.01;89.98
65470;DHT22;52067;50.710;14.492;2023-03-14T00:23:28;8.87;90.04
65470;DHT22;52067;50.710;14.492;2023-03-14T00:25:56;9.11;89.93
65470;DHT22;52067;50.710;14.492;2023-03-14T00:28:23;9.00;89.78
65470;DHT22;52067;50.710;14.492;2023-03-14T00:30:48;8.85;89.77
65470;DHT22;52067;50.710;14.492;2023-03-14T00:33:13;8.66;90.36
65470;DHT22;52067;50.710;14.492;2023-03-14T00:35:39;8.60;90.57
65470;DHT22;52067;50.710;14.492;2023-03-14T00:38:04;8.53;90.84
65470;DHT22;52067;50.710;14.492;2023-03-14T00:40:29;8.42;91.06
65470;DHT22;52067;50.710;14.492;2023-03-14T00:42:55;8.33;91.19
65470;DHT22;52067;50.710;14.492;2023-03-14T00:45:20;8.35;91.29
65470;DHT22;52067;50.710;14.492;2023-03-14T00:47:45;8.47;91.39
65470;DHT22;52067;50.710;14.492;2023-03-14T00:50:11;8.45;91.35
65470;DHT22;52067;50.710;14.492;2023-03-14T00:52:37;8.37;91.23
65470;DHT22;52067;50.710;14.492;2023-03-14T00:55:03;8.45;91.11
65470;DHT22;52067;50.710;14.492;2023-03-14T00:57:29;8.45;90.94
65470;DHT22;52067;50.710;14.492;2023-03-14T00:59:55;8.40;90.80
65470;DHT22;52067;50.710;14.492;2023-03-14T01:02:20;8.40;90.82
65470;DHT22;52067;50.710;14.492;2023-03-14T01:04:48;8.46;90.77
65470;DHT22;52067;50.710;14.492;2023-03-14T01:07:14;8.54;90.51
65470;DHT22;52067;50.710;14.492;2023-03-14T01:09:39;8.67;90.32
65470;DHT22;52067;50.710;14.492;2023-03-14T01:12:04;8.56;90.38
65470;DHT22;52067;50.710;14.492;2023-03-14T01:14:30;8.56;90.38
65470;DHT22;52067;50.710;14.492;2023-03-14T01:16:55;8.47;90.45
65470;DHT22;52067;50.710;14.492;2023-03-14T01:19:26;8.56;90.47
65470;DHT22;52067;50.710;14.492;2023-03-14T01:21:52;8.68;90.37
65470;DHT22;52067;50.710;14.492;2023-03-14T01:24:17;8.74;90.25
65470;DHT22;52067;50.710;14.492;2023-03-14T01:26:43;8.74;89.72
65470;DHT22;52067;50.710;14.492;2023-03-14T01:29:08;8.64;89.61
65470;DHT22;52067;50.710;14.492;2023-03-14T01:31:34;8.59;89.73
65470;DHT22;52067;50.710;14.492;2023-03-14T01:33:59;8.37;90.04
65470;DHT22;52067;50.710;14.492;2023-03-14T01:36:25;8.49;90.37
65470;DHT22;52067;50.710;14.492;2023-03-14T01:38:50;8.42;90.15
65470;DHT22;52067;50.710;14.492;2023-03-14T01:41:19;8.40;90.19
65470;DHT22;52067;50.710;14.492;2023-03-14T01:43:45;8.33;90.19
65470;DHT22;52067;50.710;14.492;2023-03-14T01:46:31;8.21;90.21
65470;DHT22;52067;50.710;14.492;2023-03-14T01:51:49;8.28;90.10
65470;DHT22;52067;50.710;14.492;2023-03-14T01:55:32;8.36;90.05
65470;DHT22;52067;50.710;14.492;2023-03-14T01:57:33;8.18;89.73
65470;DHT22;52067;50.710;14.492;2023-03-14T02:00:10;8.29;89.90
65470;DHT22;52067;50.710;14.492;2023-03-14T02:02:44;8.24;89.71
65470;DHT22;52067;50.710;14.492;2023-03-14T02:05:10;8.01;90.00
65470;DHT22;52067;50.710;14.492;2023-03-14T02:07:51;8.06;90.26
65470;DHT22;52067;50.710;14.492;2023-03-14T02:10:19;8.02;90.17
65470;DHT22;52067;50.710;14.492;2023-03-14T02:12:47;8.12;90.09
65470;DHT22;52067;50.710;14.492;2023-03-14T02:15:13;7.98;90.10
65470;DHT22;52067;50.710;14.492;2023-03-14T02:17:40;8.01;90.03
65470;DHT22;52067;50.710;14.492;2023-03-14T02:22:38;8.08;89.76
65470;DHT22;52067;50.710;14.492;2023-03-14T02:25:26;8.03;89.72
65470;DHT22;52067;50.710;14.492;2023-03-14T02:27:53;8.05;89.66
65470;DHT22;52067;50.710;14.492;2023-03-14T02:30:22;8.05;89.45
65470;DHT22;52067;50.710;14.492;2023-03-14T02:32:54;8.13;89.35
65470;DHT22;52067;50.710;14.492;2023-03-14T02:35:27;8.08;89.32
65470;DHT22;52067;50.710;14.492;2023-03-14T02:40:55;8.10;89.10
65470;DHT22;52067;50.710;14.492;2023-03-14T02:43:20;7.82;89.66
65470;DHT22;52067;50.710;14.492;2023-03-14T02:45:48;7.78;90.11
65470;DHT22;52067;50.710;14.492;2023-03-14T02:48:20;7.74;89.98
65470;DHT22;52067;50.710;14.492;2023-03-14T02:50:47;7.74;89.99
65470;DHT22;52067;50.710;14.492;2023-03-14T02:53:17;7.53;89.79
65470;DHT22;52067;50.710;14.492;2023-03-14T02:55:48;7.12;90.42
65470;DHT22;52067;50.710;14.492;2023-03-14T02:58:14;7.02;91.14
65470;DHT22;52067;50.710;14.492;2023-03-14T03:00:40;6.87;91.25
65470;DHT22;52067;50.710;14.492;2023-03-14T03:03:05;6.98;91.13
65470;DHT22;52067;50.710;14.492;2023-03-14T03:05:31;7.13;90.99
65470;DHT22;52067;50.710;14.492;2023-03-14T03:07:57;7.09;90.71
65470;DHT22;52067;50.710;14.492;2023-03-14T03:10:22;7.18;90.50
65470;DHT22;52067;50.710;14.492;2023-03-14T03:12:48;7.15;90.29
65470;DHT22;52067;50.710;14.492;2023-03-14T03:15:13;7.03;90.28
65470;DHT22;52067;50.710;14.492;2023-03-14T03:17:38;7.20;90.13
65470;DHT22;52067;50.710;14.492;2023-03-14T03:20:04;7.22;89.97
65470;DHT22;52067;50.710;14.492;2023-03-14T03:22:30;7.26;89.84
65470;DHT22;52067;50.710;14.492;2023-03-14T03:24:56;7.29;89.86
65470;DHT22;52067;50.710;14.492;2023-03-14T03:27:21;7.33;89.81
65470;DHT22;52067;50.710;14.492;2023-03-14T03:29:47;7.34;89.43
65470;DHT22;52067;50.710;14.492;2023-03-14T03:32:12;7.30;89.32
65470;DHT22;52067;50.710;14.492;2023-03-14T03:34:38;7.27;89.42
65470;DHT22;52067;50.710;14.492;2023-03-14T03:37:03;6.95;89.59
65470;DHT22;52067;50.710;14.492;2023-03-14T03:39:28;6.89;90.31
65470;DHT22;52067;50.710;14.492;2023-03-14T03:41:54;6.95;90.06
65470;DHT22;52067;50.710;14.492;2023-03-14T03:44:19;7.08;89.75
65470;DHT22;52067;50.710;14.492;2023-03-14T03:46:45;7.08;89.61
65470;DHT22;52067;50.710;14.492;2023-03-14T03:49:10;7.03;89.43
65470;DHT22;52067;50.710;14.492;2023-03-14T03:51:36;6.71;89.12
65470;DHT22;52067;50.710;14.492;2023-03-14T03:54:01;6.58;89.29
65470;DHT22;52067;50.710;14.492;2023-03-14T03:56:26;6.69;89.56
65470;DHT22;52067;50.710;14.492;2023-03-14T03:58:52;6.65;89.43
65470;DHT22;52067;50.710;14.492;2023-03-14T04:01:17;6.64;89.67
65470;DHT22;52067;50.710;14.492;2023-03-14T04:03:42;6.67;89.90
65470;DHT22;52067;50.710;14.492;2023-03-14T04:06:10;6.21;90.16
65470;DHT22;52067;50.710;14.492;2023-03-14T04:08:36;6.29;90.59
65470;DHT22;52067;50.710;14.492;2023-03-14T04:11:02;6.21;90.60
65470;DHT22;52067;50.710;14.492;2023-03-14T04:13:28;6.19;90.75
65470;DHT22;52067;50.710;14.492;2023-03-14T04:15:55;6.23;90.95
65470;DHT22;52067;50.710;14.492;2023-03-14T04:18:21;6.37;90.82
65470;DHT22;52067;50.710;14.492;2023-03-14T04:20:51;6.57;90.55
65470;DHT22;52067;50.710;14.492;2023-03-14T04:23:17;6.34;90.13
65470;DHT22;52067;50.710;14.492;2023-03-14T04:25:42;6.16;90.65
65470;DHT22;52067;50.710;14.492;2023-03-14T04:28:07;6.17;90.72
65470;DHT22;52067;50.710;14.492;2023-03-14T04:30:33;6.20;90.56
65470;DHT22;52067;50.710;14.492;2023-03-14T04:32:58;6.29;90.43
65470;DHT22;52067;50.710;14.492;2023-03-14T04:35:24;6.10;90.74
65470;DHT22;52067;50.710;14.492;2023-03-14T04:37:49;6.14;90.75
65470;DHT22;52067;50.710;14.492;2023-03-14T04:40:17;6.17;90.74
65470;DHT22;52067;50.710;14.492;2023-03-14T04:42:43;6.10;91.02
65470;DHT22;52067;50.710;14.492;2023-03-14T04:45:08;6.16;91.16
65470;DHT22;52067;50.710;14.492;2023-03-14T04:47:34;6.29;90.98
65470;DHT22;52067;50.710;14.492;2023-03-14T04:50:00;6.42;90.72
65470;DHT22;52067;50.710;14.492;2023-03-14T04:52:25;6.50;90.50
65470;DHT22;52067;50.710;14.492;2023-03-14T04:54:51;6.52;90.40
65470;DHT22;52067;50.710;14.492;2023-03-14T04:57:17;6.31;90.14
65470;DHT22;52067;50.710;14.492;2023-03-14T04:59:42;6.36;90.10
65470;DHT22;52067;50.710;14.492;2023-03-14T05:02:07;6.02;90.54
65470;DHT22;52067;50.710;14.492;2023-03-14T05:04:33;6.06;90.63
65470;DHT22;52067;50.710;14.492;2023-03-14T05:06:59;6.23;90.54
65470;DHT22;52067;50.710;14.492;2023-03-14T05:09:25;6.34;90.29
65470;DHT22;52067;50.710;14.492;2023-03-14T05:11:50;6.31;90.28
65470;DHT22;52067;50.710;14.492;2023-03-14T05:14:16;6.26;90.31
65470;DHT22;52067;50.710;14.492;2023-03-14T05:16:41;6.03;90.82
65470;DHT22;52067;50.710;14.492;2023-03-14T05:19:07;5.96;90.87
65470;DHT22;52067;50.710;14.492;2023-03-14T05:21:32;5.79;91.16
65470;DHT22;52067;50.710;14.492;2023-03-14T05:23:57;5.56;91.13
65470;DHT22;52067;50.710;14.492;2023-03-14T05:26:23;5.62;91.49
65470;DHT22;52067;50.710;14.492;2023-03-14T05:28:48;5.71;91.44
65470;DHT22;52067;50.710;14.492;2023-03-14T05:31:14;5.72;91.64
65470;DHT22;52067;50.710;14.492;2023-03-14T05:33:40;5.68;91.56
65470;DHT22;52067;50.710;14.492;2023-03-14T05:36:06;5.76;91.53
65470;DHT22;52067;50.710;14.492;2023-03-14T05:38:31;5.73;91.35
65470;DHT22;52067;50.710;14.492;2023-03-14T05:40:56;5.88;91.18
65470;DHT22;52067;50.710;14.492;2023-03-14T05:43:22;6.03;91.13
65470;DHT22;52067;50.710;14.492;2023-03-14T05:45:47;6.05;91.04
65470;DHT22;52067;50.710;14.492;2023-03-14T05:48:13;5.85;90.98
65470;DHT22;52067;50.710;14.492;2023-03-14T05:50:38;6.10;91.06
65470;DHT22;52067;50.710;14.492;2023-03-14T05:53:04;6.02;90.86
65470;DHT22;52067;50.710;14.492;2023-03-14T05:55:30;6.23;90.94
65470;DHT22;52067;50.710;14.492;2023-03-14T05:57:55;6.40;90.87
65470;DHT22;52067;50.710;14.492;2023-03-14T06:00:21;6.31;90.49
65470;DHT22;52067;50.710;14.492;2023-03-14T06:02:46;6.26;90.59
65470;DHT22;52067;50.710;14.492;2023-03-14T06:05:12;6.21;90.61
65470;DHT22;52067;50.710;14.492;2023-03-14T06:07:37;6.07;90.98
65470;DHT22;52067;50.710;14.492;2023-03-14T06:10:03;6.20;91.23
65470;DHT22;52067;50.710;14.492;2023-03-14T06:12:29;6.36;91.14
65470;DHT22;52067;50.710;14.492;2023-03-14T06:14:54;6.57;90.91
65470;DHT22;52067;50.710;14.492;2023-03-14T06:17:20;6.69;90.64
65470;DHT22;52067;50.710;14.492;2023-03-14T06:19:45;6.79;90.41
65470;DHT22;52067;50.710;14.492;2023-03-14T06:22:10;6.82;90.36
65470;DHT22;52067;50.710;14.492;2023-03-14T06:24:36;6.87;90.17
65470;DHT22;52067;50.710;14.492;2023-03-14T06:27:01;6.96;90.11
65470;DHT22;52067;50.710;14.492;2023-03-14T06:29:29;7.18;89.71
65470;DHT22;52067;50.710;14.492;2023-03-14T06:31:54;7.30;89.66
65470;DHT22;52067;50.710;14.492;2023-03-14T06:34:20;7.37;89.30
65470;DHT22;52067;50.710;14.492;2023-03-14T06:36:45;7.34;89.38
65470;DHT22;52067;50.710;14.492;2023-03-14T06:39:10;7.39;89.43
65470;DHT22;52067;50.710;14.492;2023-03-14T06:41:36;7.58;89.48
65470;DHT22;52067;50.710;14.492;2023-03-14T06:44:01;7.79;89.20
65470;DHT22;52067;50.710;14.492;2023-03-14T06:46:26;7.79;88.38
65470;DHT22;52067;50.710;14.492;2023-03-14T06:48:52;7.95;87.82
65470;DHT22;52067;50.710;14.492;2023-03-14T06:51:18;7.98;87.62
65470;DHT22;52067;50.710;14.492;2023-03-14T06:53:43;7.97;87.84
65470;DHT22;52067;50.710;14.492;2023-03-14T06:56:09;7.95;87.98
65470;DHT22;52067;50.710;14.492;2023-03-14T06:58:34;7.99;87.91
65470;DHT22;52067;50.710;14.492;2023-03-14T07:00:59;7.78;88.76
65470;DHT22;52067;50.710;14.492;2023-03-14T07:03:25;7.91;88.43
65470;DHT22;52067;50.710;14.492;2023-03-14T07:05:51;8.02;88.50
65470;DHT22;52067;50.710;14.492;2023-03-14T07:08:17;8.06;88.28
65470;DHT22;52067;50.710;14.492;2023-03-14T07:10:42;8.15;88.10
65470;DHT22;52067;50.710;14.492;2023-03-14T07:13:08;8.22;87.97
65470;DHT22;52067;50.710;14.492;2023-03-14T07:15:33;8.35;87.93
65470;DHT22;52067;50.710;14.492;2023-03-14T07:17:59;8.50;87.55
65470;DHT22;52067;50.710;14.492;2023-03-14T07:20:24;8.54;87.19
65470;DHT22;52067;50.710;14.492;2023-03-14T07:22:49;8.57;87.28
65470;DHT22;52067;50.710;14.492;2023-03-14T07:25:15;8.81;86.93
65470;DHT22;52067;50.710;14.492;2023-03-14T07:27:44;8.92;86.26
65470;DHT22;52067;50.710;14.492;2023-03-14T07:30:11;9.03;86.22
65470;DHT22;52067;50.710;14.492;2023-03-14T07:32:37;9.07;86.32
65470;DHT22;52067;50.710;14.492;2023-03-14T07:35:02;9.04;86.73
65470;DHT22;52067;50.710;14.492;2023-03-14T07:37:28;9.04;86.84
65470;DHT22;52067;50.710;14.492;2023-03-14T07:39:53;9.07;86.90
65470;DHT22;52067;50.710;14.492;2023-03-14T07:42:19;9.22;86.90
65470;DHT22;52067;50.710;14.492;2023-03-14T07:44:44;9.32;86.72
65470;DHT22;52067;50.710;14.492;2023-03-14T07:47:09;9.49;86.76
65470;DHT22;52067;50.710;14.492;2023-03-14T07:49:35;9.67;86.54
65470;DHT22;52067;50.710;14.492;2023-03-14T07:52:00;9.50;86.57
65470;DHT22;52067;50.710;14.492;2023-03-14T07:54:26;9.52;86.70
65470;DHT22;52067;50.710;14.492;2023-03-14T07:56:51;9.43;87.52
65470;DHT22;52067;50.710;14.492;2023-03-14T07:59:18;9.52;87.21
65470;DHT22;52067;50.710;14.492;2023-03-14T08:01:43;9.28;87.73
65470;DHT22;52067;50.710;14.492;2023-03-14T08:04:09;9.64;87.27
65470;DHT22;52067;50.710;14.492;2023-03-14T08:06:35;9.97;86.43
65470;DHT22;52067;50.710;14.492;2023-03-14T08:09:01;10.00;85.40
65470;DHT22;52067;50.710;14.492;2023-03-14T08:11:26;9.80;86.58
65470;DHT22;52067;50.710;14.492;2023-03-14T08:13:51;9.62;87.18
65470;DHT22;52067;50.710;14.492;2023-03-14T08:16:17;9.56;87.49
65470;DHT22;52067;50.710;14.492;2023-03-14T08:18:44;9.45;87.74
65470;DHT22;52067;50.710;14.492;2023-03-14T08:21:10;9.39;88.54
65470;DHT22;52067;50.710;14.492;2023-03-14T08:23:35;9.43;88.46
65470;DHT22;52067;50.710;14.492;2023-03-14T08:26:00;9.21;88.73
65470;DHT22;52067;50.710;14.492;2023-03-14T08:28:26;9.46;88.90
65470;DHT22;52067;50.710;14.492;2023-03-14T08:30:59;9.62;88.42
65470;DHT22;52067;50.710;14.492;2023-03-14T08:33:26;10.01;88.03
65470;DHT22;52067;50.710;14.492;2023-03-14T08:35:53;10.05;87.36
65470;DHT22;52067;50.710;14.492;2023-03-14T08:38:18;9.94;88.82
65470;DHT22;52067;50.710;14.492;2023-03-14T08:40:43;10.00;87.70
65470;DHT22;52067;50.710;14.492;2023-03-14T08:43:09;10.37;87.38
65470;DHT22;52067;50.710;14.492;2023-03-14T08:45:34;10.48;86.22
65470;DHT22;52067;50.710;14.492;2023-03-14T08:48:00;10.66;85.21
65470;DHT22;52067;50.710;14.492;2023-03-14T08:50:25;10.68;84.87
65470;DHT22;52067;50.710;14.492;2023-03-14T08:52:51;10.75;84.77
65470;DHT22;52067;50.710;14.492;2023-03-14T08:55:16;10.77;84.32
65470;DHT22;52067;50.710;14.492;2023-03-14T08:57:42;10.99;83.78
65470;DHT22;52067;50.710;14.492;2023-03-14T09:00:08;11.24;83.06
65470;DHT22;52067;50.710;14.492;2023-03-14T09:02:39;11.28;82.15
65470;DHT22;52067;50.710;14.492;2023-03-14T09:05:05;11.09;81.91
65470;DHT22;52067;50.710;14.492;2023-03-14T09:07:31;10.89;82.83
65470;DHT22;52067;50.710;14.492;2023-03-14T09:09:56;10.90;81.80
65470;DHT22;52067;50.710;14.492;2023-03-14T09:12:22;10.95;82.35
65470;DHT22;52067;50.710;14.492;2023-03-14T09:14:47;10.99;82.14
65470;DHT22;52067;50.710;14.492;2023-03-14T09:17:12;10.82;81.77
65470;DHT22;52067;50.710;14.492;2023-03-14T09:19:38;10.82;82.25
65470;DHT22;52067;50.710;14.492;2023-03-14T09:22:03;11.06;82.39
65470;DHT22;52067;50.710;14.492;2023-03-14T09:24:29;10.96;82.69
65470;DHT22;52067;50.710;14.492;2023-03-14T09:26:55;11.06;82.08
65470;DHT22;52067;50.710;14.492;2023-03-14T09:29:21;10.99;82.47
65470;DHT22;52067;50.710;14.492;2023-03-14T09:31:47;11.00;82.01
65470;DHT22;52067;50.710;14.492;2023-03-14T09:34:12;11.13;80.66
65470;DHT22;52067;50.710;14.492;2023-03-14T09:36:37;11.23;81.84
65470;DHT22;52067;50.710;14.492;2023-03-14T09:39:04;11.13;81.73
65470;DHT22;52067;50.710;14.492;2023-03-14T09:41:36;11.17;82.65
65470;DHT22;52067;50.710;14.492;2023-03-14T09:44:19;11.24;81.25
65470;DHT22;52067;50.710;14.492;2023-03-14T09:46:50;11.31;80.61
65470;DHT22;52067;50.710;14.492;2023-03-14T09:51:46;11.38;80.61
65470;DHT22;52067;50.710;14.492;2023-03-14T09:54:34;11.37;80.92
65470;DHT22;52067;50.710;14.492;2023-03-14T09:56:59;11.41;79.96
65470;DHT22;52067;50.710;14.492;2023-03-14T09:59:27;11.55;80.33
65470;DHT22;52067;50.710;14.492;2023-03-14T10:01:56;11.54;80.72
65470;DHT22;52067;50.710;14.492;2023-03-14T10:04:23;11.62;79.32
65470;DHT22;52067;50.710;14.492;2023-03-14T10:06:48;11.72;79.39
65470;DHT22;52067;50.710;14.492;2023-03-14T10:09:22;11.78;78.94
65470;DHT22;52067;50.710;14.492;2023-03-14T10:11:55;11.72;77.32
65470;DHT22;52067;50.710;14.492;2023-03-14T10:14:36;11.81;77.82
65470;DHT22;52067;50.710;14.492;2023-03-14T10:17:06;11.57;77.96
65470;DHT22;52067;50.710;14.492;2023-03-14T10:19:32;11.77;77.24
65470;DHT22;52067;50.710;14.492;2023-03-14T10:22:00;11.79;77.68
65470;DHT22;52067;50.710;14.492;2023-03-14T10:24:33;11.58;78.07
65470;DHT22;52067;50.710;14.492;2023-03-14T10:27:04;11.64;78.10
65470;DHT22;52067;50.710;14.492;2023-03-14T10:29:32;11.54;77.68
65470;DHT22;52067;50.710;14.492;2023-03-14T10:32:10;11.54;78.36
65470;DHT22;52067;50.710;14.492;2023-03-14T10:34:43;11.51;77.80
65470;DHT22;52067;50.710;14.492;2023-03-14T10:37:18;11.48;79.26
65470;DHT22;52067;50.710;14.492;2023-03-14T10:39:59;11.51;77.62
65470;DHT22;52067;50.710;14.492;2023-03-14T10:42:31;11.67;78.18
65470;DHT22;52067;50.710;14.492;2023-03-14T10:45:02;11.71;76.24
65470;DHT22;52067;50.710;14.492;2023-03-14T10:47:28;11.82;76.66
65470;DHT22;52067;50.710;14.492;2023-03-14T10:49:55;11.81;77.14
65470;DHT22;52067;50.710;14.492;2023-03-14T10:52:25;11.64;77.04
65470;DHT22;52067;50.710;14.492;2023-03-14T10:54:59;11.61;76.21
65470;DHT22;52067;50.710;14.492;2023-03-14T10:57:26;11.65;76.83
65470;DHT22;52067;50.710;14.492;2023-03-14T10:59:54;11.62;77.37
65470;DHT22;52067;50.710;14.492;2023-03-14T11:05:11;11.57;75.98
65470;DHT22;52067;50.710;14.492;2023-03-14T11:07:42;11.51;75.40
65470;DHT22;52067;50.710;14.492;2023-03-14T11:10:31;11.54;76.28
65470;DHT22;52067;50.710;14.492;2023-03-14T11:13:23;11.50;75.17
65470;DHT22;52067;50.710;14.492;2023-03-14T11:21:13;11.27;74.82
65470;DHT22;52067;50.710;14.492;2023-03-14T11:24:00;11.35;75.89
65470;DHT22;52067;50.710;14.492;2023-03-14T11:26:41;11.40;76.63
65470;DHT22;52067;50.710;14.492;2023-03-14T11:29:28;11.42;75.00
65470;DHT22;52067;50.710;14.492;2023-03-14T11:31:59;11.58;75.35
65470;DHT22;52067;50.710;14.492;2023-03-14T11:34:36;11.32;76.34
65470;DHT22;52067;50.710;14.492;2023-03-14T11:37:21;11.48;75.20
65470;DHT22;52067;50.710;14.492;2023-03-14T11:40:16;11.51;74.28
65470;DHT22;52067;50.710;14.492;2023-03-14T11:42:43;11.55;75.01
65470;DHT22;52067;50.710;14.492;2023-03-14T11:45:20;11.58;74.62
65470;DHT22;52067;50.710;14.492;2023-03-14T11:48:02;11.50;75.41
65470;DHT22;52067;50.710;14.492;2023-03-14T11:50:29;11.34;74.96
65470;DHT22;52067;50.710;14.492;2023-03-14T11:53:14;11.38;75.25
65470;DHT22;52067;50.710;14.492;2023-03-14T11:55:42;11.47;75.55
65470;DHT22;52067;50.710;14.492;2023-03-14T11:58:19;11.35;76.49
65470;DHT22;52067;50.710;14.492;2023-03-14T12:00:47;11.42;73.45
65470;DHT22;52067;50.710;14.492;2023-03-14T12:03:28;11.57;75.30
65470;DHT22;52067;50.710;14.492;2023-03-14T12:14:03;11.58;73.15
65470;DHT22;52067;50.710;14.492;2023-03-14T12:16:46;11.64;72.92
65470;DHT22;52067;50.710;14.492;2023-03-14T12:19:28;11.85;72.87
65470;DHT22;52067;50.710;14.492;2023-03-14T12:21:58;12.05;73.39
65470;DHT22;52067;50.710;14.492;2023-03-14T12:24:30;12.02;73.41
65470;DHT22;52067;50.710;14.492;2023-03-14T12:26:59;12.10;72.35
65470;DHT22;52067;50.710;14.492;2023-03-14T12:29:24;12.27;72.14
65470;DHT22;52067;50.710;14.492;2023-03-14T12:32:20;12.38;71.29
65470;DHT22;52067;50.710;14.492;2023-03-14T12:34:46;12.40;71.66
65470;DHT22;52067;50.710;14.492;2023-03-14T12:37:36;12.27;70.77
65470;DHT22;52067;50.710;14.492;2023-03-14T12:42:59;11.98;71.29
65470;DHT22;52067;50.710;14.492;2023-03-14T12:48:43;12.40;70.46
65470;DHT22;52067;50.710;14.492;2023-03-14T12:51:04;13.05;68.72
65470;DHT22;52067;50.710;14.492;2023-03-14T13:01:59;13.84;66.31
65470;DHT22;52067;50.710;14.492;2023-03-14T13:04:37;14.39;66.11
65470;DHT22;52067;50.710;14.492;2023-03-14T13:10:05;14.55;63.60
65470;DHT22;52067;50.710;14.492;2023-03-14T13:12:55;14.58;62.79
65470;DHT22;52067;50.710;14.492;2023-03-14T13:15:31;15.39;60.92
65470;DHT22;52067;50.710;14.492;2023-03-14T13:18:16;16.21;61.65
65470;DHT22;52067;50.710;14.492;2023-03-14T13:20:50;16.44;57.02
65470;DHT22;52067;50.710;14.492;2023-03-14T13:23:27;15.38;59.12
65470;DHT22;52067;50.710;14.492;2023-03-14T13:25:54;15.95;56.87
65470;DHT22;52067;50.710;14.492;2023-03-14T13:28:20;15.89;59.03
65470;DHT22;52067;50.710;14.492;2023-03-14T13:30:47;14.59;59.75
65470;DHT22;52067;50.710;14.492;2023-03-14T13:33:21;13.97;60.94
65470;DHT22;52067;50.710;14.492;2023-03-14T13:35:49;14.32;61.66
65470;DHT22;52067;50.710;14.492;2023-03-14T13:38:22;14.20;61.41
65470;DHT22;52067;50.710;14.492;2023-03-14T13:40:49;14.73;60.63
65470;DHT22;52067;50.710;14.492;2023-03-14T13:43:17;15.79;61.11
65470;DHT22;52067;50.710;14.492;2023-03-14T13:48:29;15.99;57.65
65470;DHT22;52067;50.710;14.492;2023-03-14T13:50:59;15.75;58.95
65470;DHT22;52067;50.710;14.492;2023-03-14T13:53:26;15.27;60.35
65470;DHT22;52067;50.710;14.492;2023-03-14T13:55:52;15.37;59.48
65470;DHT22;52067;50.710;14.492;2023-03-14T13:58:26;15.86;58.93
65470;DHT22;52067;50.710;14.492;2023-03-14T14:01:10;16.21;57.31
65470;DHT22;52067;50.710;14.492;2023-03-14T14:03:39;16.02;57.68
65470;DHT22;52067;50.710;14.492;2023-03-14T14:06:11;16.09;56.21
65470;DHT22;52067;50.710;14.492;2023-03-14T14:08:42;16.34;55.37
65470;DHT22;52067;50.710;14.492;2023-03-14T14:11:08;16.20;57.22
65470;DHT22;52067;50.710;14.492;2023-03-14T14:13:39;15.31;58.99
65470;DHT22;52067;50.710;14.492;2023-03-14T14:16:06;14.62;61.97
65470;DHT22;52067;50.710;14.492;2023-03-14T14:18:33;14.20;63.87
65470;DHT22;52067;50.710;14.492;2023-03-14T14:20:59;14.43;63.11
65470;DHT22;52067;50.710;14.492;2023-03-14T14:23:26;15.07;62.09
65470;DHT22;52067;50.710;14.492;2023-03-14T14:25:55;16.92;55.62
65470;DHT22;52067;50.710;14.492;2023-03-14T14:28:35;17.16;55.53
65470;DHT22;52067;50.710;14.492;2023-03-14T14:33:44;16.21;57.36
65470;DHT22;52067;50.710;14.492;2023-03-14T14:38:58;14.84;61.61
65470;DHT22;52067;50.710;14.492;2023-03-14T14:41:27;13.69;66.00
65470;DHT22;52067;50.710;14.492;2023-03-14T14:43:54;13.15;67.58
65470;DHT22;52067;50.710;14.492;2023-03-14T14:46:20;12.83;69.02
65470;DHT22;52067;50.710;14.492;2023-03-14T14:48:46;12.57;70.66
65470;DHT22;52067;50.710;14.492;2023-03-14T14:51:23;11.86;74.73
65470;DHT22;52067;50.710;14.492;2023-03-14T14:53:49;11.52;76.73
65470;DHT22;52067;50.710;14.492;2023-03-14T14:56:28;11.83;75.62
65470;DHT22;52067;50.710;14.492;2023-03-14T14:59:00;12.77;73.09
65470;DHT22;52067;50.710;14.492;2023-03-14T15:01:32;13.83;71.33
65470;DHT22;52067;50.710;14.492;2023-03-14T15:03:59;14.53;68.27
65470;DHT22;52067;50.710;14.492;2023-03-14T15:06:28;14.42;69.21
65470;DHT22;52067;50.710;14.492;2023-03-14T15:08:54;14.65;66.18
65470;DHT22;52067;50.710;14.492;2023-03-14T15:11:22;14.63;67.28
65470;DHT22;52067;50.710;14.492;2023-03-14T15:13:48;14.89;67.05
65470;DHT22;52067;50.710;14.492;2023-03-14T15:16:18;15.07;65.47
65470;DHT22;52067;50.710;14.492;2023-03-14T15:18:47;14.94;66.55
65470;DHT22;52067;50.710;14.492;2023-03-14T15:21:13;14.90;65.92
65470;DHT22;52067;50.710;14.492;2023-03-14T15:23:39;14.41;66.96
65470;DHT22;52067;50.710;14.492;2023-03-14T15:26:15;13.91;69.65
65470;DHT22;52067;50.710;14.492;2023-03-14T15:28:42;13.56;69.93
65470;DHT22;52067;50.710;14.492;2023-03-14T15:31:09;13.57;70.60
65470;DHT22;52067;50.710;14.492;2023-03-14T15:33:35;13.27;72.03
65470;DHT22;52067;50.710;14.492;2023-03-14T15:36:00;13.60;70.97
65470;DHT22;52067;50.710;14.492;2023-03-14T15:38:26;13.40;70.09
65470;DHT22;52067;50.710;14.492;2023-03-14T15:40:52;12.84;72.30
65470;DHT22;52067;50.710;14.492;2023-03-14T15:43:18;12.67;73.32
65470;DHT22;52067;50.710;14.492;2023-03-14T15:45:44;12.50;73.93
65470;DHT22;52067;50.710;14.492;2023-03-14T15:48:15;12.19;72.82
65470;DHT22;52067;50.710;14.492;2023-03-14T15:50:42;12.07;73.34
65470;DHT22;52067;50.710;14.492;2023-03-14T15:53:07;11.99;73.10
65470;DHT22;52067;50.710;14.492;2023-03-14T15:55:33;11.89;73.98
65470;DHT22;52067;50.710;14.492;2023-03-14T15:57:58;11.90;74.81
65470;DHT22;52067;50.710;14.492;2023-03-14T16:00:25;11.90;73.59
65470;DHT22;52067;50.710;14.492;2023-03-14T16:02:51;11.98;73.98
65470;DHT22;52067;50.710;14.492;2023-03-14T16:05:17;11.93;74.71
65470;DHT22;52067;50.710;14.492;2023-03-14T16:07:45;11.88;75.50
65470;DHT22;52067;50.710;14.492;2023-03-14T16:10:12;11.90;75.38
65470;DHT22;52067;50.710;14.492;2023-03-14T16:12:38;11.86;75.11
65470;DHT22;52067;50.710;14.492;2023-03-14T16:15:04;11.82;76.03
65470;DHT22;52067;50.710;14.492;2023-03-14T16:17:29;11.83;75.63
65470;DHT22;52067;50.710;14.492;2023-03-14T16:19:55;11.64;77.33
65470;DHT22;52067;50.710;14.492;2023-03-14T16:22:20;11.51;77.94
65470;DHT22;52067;50.710;14.492;2023-03-14T16:24:45;11.67;77.00